createdAt,value
2019-04-30T04:00:54.977Z,99.60
2019-04-30T04:01:54.832Z,99.69
2019-04-30T04:03:49.480Z,99.22
2019-04-30T04:04:52.111Z,99.51
2019-04-30T04:06:40.052Z,99.60
2019-04-30T04:07:39.949Z,99.13
2019-04-30T04:09:32.630Z,99.51
2019-04-30T04:10:32.495Z,99.69
2019-04-30T04:12:25.166Z,99.41
2019-04-30T04:13:25.084Z,99.41
2019-04-30T04:15:19.953Z,99.99
2019-04-30T04:16:19.522Z,99.69
2019-04-30T04:18:10.853Z,99.99
2019-04-30T04:19:10.189Z,99.98
2019-04-30T04:21:12.097Z,99.99
2019-04-30T04:22:04.224Z,99.99
2019-04-30T04:23:55.404Z,99.99
2019-04-30T04:24:55.305Z,99.99
2019-04-30T04:26:50.154Z,99.99
2019-04-30T04:27:50.556Z,99.99
2019-04-30T04:29:40.503Z,99.99
2019-04-30T04:30:42.964Z,99.99
2019-04-30T04:32:33.089Z,99.99
2019-04-30T04:33:32.953Z,99.99
2019-04-30T04:35:25.626Z,99.99
2019-04-30T04:36:25.519Z,99.99
2019-04-30T04:38:20.412Z,99.99
2019-04-30T04:39:20.241Z,99.99
2019-04-30T04:41:10.741Z,99.99
2019-04-30T04:42:10.628Z,99.99
2019-04-30T04:44:03.319Z,99.99
2019-04-30T04:45:03.204Z,99.99
2019-04-30T04:46:55.862Z,99.99
2019-04-30T04:47:55.747Z,99.99
2019-04-30T04:49:53.081Z,99.98
2019-04-30T04:50:50.113Z,99.32
2019-04-30T04:52:40.997Z,99.60
2019-04-30T04:53:40.888Z,99.41
2019-04-30T04:55:33.584Z,99.32
2019-04-30T04:56:33.450Z,99.79
2019-04-30T04:58:26.128Z,99.69
2019-04-30T04:59:26.009Z,99.41
2019-04-30T05:01:20.343Z,99.41
2019-04-30T05:02:19.579Z,99.51
2019-04-30T05:04:12.005Z,99.79
2019-04-30T05:05:11.723Z,99.32
2019-04-30T05:07:04.426Z,99.51
2019-04-30T05:08:04.304Z,99.79
2019-04-30T05:10:00.549Z,98.70
2019-04-30T05:10:56.862Z,98.70
2019-04-30T05:12:51.069Z,98.60
2019-04-30T05:13:49.441Z,98.41
2019-04-30T05:15:42.085Z,98.32
2019-04-30T05:16:41.980Z,98.51
2019-04-30T05:18:34.689Z,97.46
2019-04-30T05:19:34.543Z,96.70
2019-04-30T05:21:39.668Z,95.75
2019-04-30T05:22:29.188Z,95.94
2019-04-30T05:24:19.779Z,95.56
2019-04-30T05:25:19.655Z,94.98
2019-04-30T05:27:12.326Z,95.03
2019-04-30T05:28:12.217Z,94.37
2019-04-30T05:30:04.906Z,92.74
2019-04-30T05:31:04.778Z,92.84
2019-04-30T05:32:58.877Z,91.60
2019-04-30T05:33:58.719Z,91.50
2019-04-30T05:35:50.049Z,91.88
2019-04-30T05:36:50.083Z,91.13
2019-04-30T05:38:42.608Z,91.22
2019-04-30T05:39:42.500Z,91.03
2019-04-30T05:41:35.191Z,91.13
2019-04-30T05:42:35.061Z,91.03
2019-04-30T05:44:29.726Z,90.84
2019-04-30T05:45:29.054Z,90.50
2019-04-30T05:47:20.316Z,90.22
2019-04-30T05:48:20.184Z,89.64
2019-04-30T05:50:12.889Z,89.89
2019-04-30T05:51:12.794Z,90.17
2019-04-30T05:53:05.438Z,91.07
2019-04-30T05:54:05.317Z,90.84
2019-04-30T05:55:59.364Z,91.22
2019-04-30T05:56:59.391Z,90.17
2019-04-30T05:58:50.540Z,91.03
2019-04-30T05:59:50.453Z,91.03
2019-04-30T06:01:47.994Z,90.36
2019-04-30T06:02:42.993Z,90.55
2019-04-30T06:04:35.672Z,90.55
2019-04-30T06:05:35.564Z,90.69
2019-04-30T06:07:29.919Z,90.31
2019-04-30T06:08:29.179Z,90.59
2019-04-30T06:10:20.803Z,89.54
2019-04-30T06:11:21.452Z,89.93
2019-04-30T06:13:13.378Z,88.59
2019-04-30T06:14:13.267Z,88.73
2019-04-30T06:16:06.431Z,88.54
2019-04-30T06:17:06.327Z,87.68
2019-04-30T06:18:59.505Z,88.26
2019-04-30T06:19:59.382Z,88.45
2019-04-30T06:21:52.053Z,89.07
2019-04-30T06:22:52.348Z,88.59
2019-04-30T06:24:44.636Z,88.50
2019-04-30T06:25:56.348Z,88.78
2019-04-30T06:27:38.706Z,87.97
2019-04-30T06:28:37.068Z,87.78
2019-04-30T06:30:29.919Z,87.87
2019-04-30T06:31:34.325Z,87.83
2019-04-30T06:33:22.363Z,87.45
2019-04-30T06:34:22.232Z,87.21
2019-04-30T06:36:14.903Z,87.21
2019-04-30T06:37:14.785Z,86.63
2019-04-30T06:39:08.689Z,86.73
2019-04-30T06:40:11.462Z,86.73
2019-04-30T06:42:07.166Z,86.82
2019-04-30T06:43:00.747Z,86.35
2019-04-30T06:44:52.625Z,86.73
2019-04-30T06:45:52.500Z,86.06
2019-04-30T06:47:45.178Z,87.02
2019-04-30T06:48:47.298Z,86.63
2019-04-30T06:50:39.365Z,86.06
2019-04-30T06:51:38.948Z,86.25
2019-04-30T06:53:30.316Z,85.87
2019-04-30T06:54:30.211Z,86.16
2019-04-30T06:56:22.984Z,85.87
2019-04-30T06:57:22.866Z,86.16
2019-04-30T06:59:16.042Z,85.87
2019-04-30T07:00:15.940Z,85.63
2019-04-30T07:02:09.255Z,85.05
2019-04-30T07:03:09.580Z,85.49
2019-04-30T07:05:01.185Z,85.25
2019-04-30T07:06:01.068Z,84.48
2019-04-30T07:08:02.173Z,85.29
2019-04-30T07:08:55.823Z,83.80
2019-04-30T07:10:55.441Z,82.94
2019-04-30T07:11:46.236Z,82.46
2019-04-30T07:13:39.526Z,82.28
2019-04-30T07:14:41.741Z,82.37
2019-04-30T07:16:31.569Z,81.45
2019-04-30T07:17:31.448Z,81.36
2019-04-30T07:19:34.596Z,73.74
2019-04-30T07:20:24.022Z,69.59
2019-04-30T07:22:16.712Z,65.94
2019-04-30T07:23:18.702Z,70.79
2019-04-30T07:25:09.621Z,73.34
2019-04-30T07:26:09.272Z,74.91
2019-04-30T07:28:01.896Z,75.26
2019-04-30T07:29:02.544Z,76.12
2019-04-30T07:31:07.629Z,78.87
2019-04-30T07:31:54.344Z,80.30
2019-04-30T07:33:53.027Z,81.13
2019-04-30T07:34:49.502Z,81.03
2019-04-30T07:36:46.955Z,81.93
2019-04-30T07:37:40.768Z,81.60
2019-04-30T07:39:33.603Z,81.65
2019-04-30T07:40:33.329Z,82.31
2019-04-30T07:42:26.024Z,81.45
2019-04-30T07:43:25.918Z,81.84
2019-04-30T07:45:19.449Z,81.88
2019-04-30T07:46:19.966Z,79.75
2019-04-30T07:48:11.191Z,77.99
2019-04-30T07:49:11.068Z,78.32
2019-04-30T07:51:03.755Z,76.40
2019-04-30T07:52:04.349Z,76.73
2019-04-30T07:53:56.358Z,73.83
2019-04-30T07:54:56.231Z,67.41
2019-04-30T07:56:50.689Z,66.83
2019-04-30T07:57:50.606Z,70.60
2019-04-30T07:59:41.573Z,77.75
2019-04-30T08:00:41.443Z,77.46
2019-04-30T08:02:39.593Z,78.22
2019-04-30T08:03:34.222Z,79.05
2019-04-30T08:05:26.736Z,78.13
2019-04-30T08:06:26.738Z,75.39
2019-04-30T08:08:25.019Z,75.68
2019-04-30T08:09:22.016Z,75.29
2019-04-30T08:11:22.971Z,70.29
2019-04-30T08:12:21.389Z,70.32
2019-04-30T08:14:04.909Z,71.11
2019-04-30T08:15:04.394Z,71.59
2019-04-30T08:16:58.892Z,70.25
2019-04-30T08:18:03.661Z,70.13
2019-04-30T08:19:49.648Z,64.79
2019-04-30T08:20:49.526Z,67.16
2019-04-30T08:22:42.216Z,68.59
2019-04-30T08:23:42.118Z,69.39
2019-04-30T08:25:35.366Z,70.06
2019-04-30T08:26:35.016Z,70.03
2019-04-30T08:28:30.194Z,73.76
2019-04-30T08:29:28.997Z,72.90
2019-04-30T08:31:20.000Z,72.99
2019-04-30T08:32:19.871Z,73.76
2019-04-30T08:34:12.566Z,73.95
2019-04-30T08:35:12.466Z,74.05
2019-04-30T08:37:16.767Z,75.01
2019-04-30T08:38:05.046Z,75.58
2019-04-30T08:39:59.798Z,76.37
2019-04-30T08:40:58.803Z,78.38
2019-04-30T08:42:50.352Z,79.87
2019-04-30T08:43:50.332Z,80.06
2019-04-30T08:45:42.923Z,80.35
2019-04-30T08:46:42.801Z,80.44
2019-04-30T08:48:49.913Z,81.30
2019-04-30T08:49:35.714Z,80.16
2019-04-30T08:51:28.930Z,80.16
2019-04-30T08:52:27.955Z,79.87
2019-04-30T08:54:21.007Z,81.21
2019-04-30T08:55:22.529Z,81.02
2019-04-30T08:57:13.222Z,81.68
2019-04-30T08:58:15.212Z,81.30
2019-04-30T09:00:05.776Z,80.44
2019-04-30T09:01:05.674Z,81.02
2019-04-30T09:02:59.355Z,81.54
2019-04-30T09:03:59.647Z,81.82
2019-04-30T09:05:50.931Z,80.96
2019-04-30T09:06:50.822Z,81.05
2019-04-30T09:08:43.516Z,80.96
2019-04-30T09:09:44.667Z,80.62
2019-04-30T09:11:50.062Z,78.80
2019-04-30T09:12:35.977Z,79.57
2019-04-30T09:14:29.791Z,80.38
2019-04-30T09:15:29.036Z,80.58
2019-04-30T09:17:21.230Z,80.38
2019-04-30T09:18:21.125Z,81.02
2019-04-30T09:20:13.822Z,82.07
2019-04-30T09:21:13.701Z,82.07
2019-04-30T09:23:06.374Z,81.68
2019-04-30T09:24:06.272Z,81.25
2019-04-30T09:25:58.969Z,80.00
2019-04-30T09:26:59.109Z,80.19
2019-04-30T09:28:51.527Z,79.05
2019-04-30T09:29:51.419Z,80.00
2019-04-30T09:31:44.117Z,80.14
2019-04-30T09:32:43.995Z,79.33
2019-04-30T09:34:38.446Z,79.37
2019-04-30T09:35:36.593Z,79.47
2019-04-30T09:37:30.596Z,80.48
2019-04-30T09:38:29.195Z,80.58
2019-04-30T09:40:21.838Z,80.96
2019-04-30T09:41:21.744Z,81.29
2019-04-30T09:43:14.425Z,80.52
2019-04-30T09:44:14.304Z,79.52
2019-04-30T09:46:17.984Z,78.09
2019-04-30T09:47:08.748Z,78.22
2019-04-30T09:48:59.869Z,77.70
2019-04-30T09:49:59.728Z,78.09
2019-04-30T09:51:52.421Z,76.02
2019-04-30T09:52:52.206Z,77.99
2019-04-30T09:54:44.732Z,78.13
2019-04-30T09:55:44.607Z,78.80
2019-04-30T09:57:38.999Z,78.89
2019-04-30T09:58:39.226Z,78.22
2019-04-30T10:00:29.859Z,77.90
2019-04-30T10:01:32.571Z,78.32
2019-04-30T10:03:23.066Z,76.98
2019-04-30T10:04:22.691Z,75.73
2019-04-30T10:06:15.005Z,77.13
2019-04-30T10:07:14.901Z,77.51
2019-04-30T10:09:09.574Z,76.50
2019-04-30T10:10:09.403Z,76.79
2019-04-30T10:12:00.142Z,78.42
2019-04-30T10:13:00.032Z,77.80
2019-04-30T10:14:52.746Z,77.80
2019-04-30T10:15:52.617Z,78.86
2019-04-30T10:17:45.291Z,80.67
2019-04-30T10:18:45.187Z,80.19
2019-04-30T10:20:37.878Z,78.13
2019-04-30T10:21:38.901Z,78.13
2019-04-30T10:23:30.455Z,78.42
2019-04-30T10:24:30.334Z,77.65
2019-04-30T10:26:23.024Z,75.93
2019-04-30T10:27:22.929Z,75.39
2019-04-30T10:29:15.591Z,74.05
2019-04-30T10:30:15.481Z,74.05
2019-04-30T10:32:08.834Z,74.52
2019-04-30T10:33:10.053Z,74.62
2019-04-30T10:35:00.721Z,74.62
2019-04-30T10:36:00.614Z,72.84
2019-04-30T10:37:53.324Z,71.75
2019-04-30T10:38:53.206Z,72.80
2019-04-30T10:40:45.880Z,71.46
2019-04-30T10:41:45.760Z,73.09
2019-04-30T10:43:39.315Z,70.15
2019-04-30T10:44:38.333Z,68.14
2019-04-30T10:46:31.008Z,70.54
2019-04-30T10:47:32.660Z,72.74
2019-04-30T10:49:24.103Z,70.54
2019-04-30T10:50:23.972Z,70.54
2019-04-30T10:52:16.650Z,69.64
2019-04-30T10:53:16.545Z,68.91
2019-04-30T10:55:09.497Z,69.87
2019-04-30T10:56:09.789Z,70.92
2019-04-30T10:58:01.817Z,68.62
2019-04-30T10:59:01.706Z,69.20
2019-04-30T11:00:54.409Z,68.52
2019-04-30T11:01:54.276Z,69.10
2019-04-30T11:03:46.958Z,68.81
2019-04-30T11:04:46.851Z,70.15
2019-04-30T11:06:39.548Z,71.50
2019-04-30T11:07:39.421Z,69.96
2019-04-30T11:09:32.118Z,67.89
2019-04-30T11:10:32.012Z,67.12
2019-04-30T11:12:24.738Z,66.55
2019-04-30T11:13:24.614Z,66.93
2019-04-30T11:15:20.638Z,65.52
2019-04-30T11:16:18.846Z,65.23
2019-04-30T11:18:10.029Z,65.52
2019-04-30T11:19:09.920Z,65.81
2019-04-30T11:21:02.686Z,64.18
2019-04-30T11:22:02.530Z,62.84
2019-04-30T11:23:55.083Z,60.92
2019-04-30T11:25:00.146Z,61.69
2019-04-30T11:26:50.116Z,61.30
2019-04-30T11:27:50.109Z,61.40
2019-04-30T11:29:40.369Z,61.49
2019-04-30T11:30:40.254Z,59.96
2019-04-30T11:32:32.911Z,58.42
2019-04-30T11:33:32.861Z,58.62
2019-04-30T11:35:25.331Z,60.44
2019-04-30T11:36:25.206Z,60.53
2019-04-30T11:38:20.332Z,62.93
2019-04-30T11:39:18.583Z,62.93
2019-04-30T11:41:10.453Z,61.02
2019-04-30T11:42:10.352Z,61.46
2019-04-30T11:44:03.047Z,60.60
2019-04-30T11:45:02.930Z,60.12
2019-04-30T11:46:55.598Z,59.36
2019-04-30T11:47:55.493Z,58.59
2019-04-30T11:49:48.195Z,58.23
2019-04-30T11:50:49.689Z,58.04
2019-04-30T11:52:40.741Z,57.75
2019-04-30T11:53:40.635Z,56.02
2019-04-30T11:55:33.338Z,55.93
2019-04-30T11:56:33.215Z,56.79
2019-04-30T11:58:25.896Z,56.22
2019-04-30T11:59:25.794Z,57.18
2019-04-30T12:01:19.482Z,55.47
2019-04-30T12:02:19.104Z,54.78
2019-04-30T12:04:11.041Z,55.10
2019-04-30T12:05:10.935Z,55.26
2019-04-30T12:07:03.628Z,54.71
2019-04-30T12:08:03.512Z,54.52
2019-04-30T12:09:56.256Z,55.96
2019-04-30T12:10:56.123Z,57.65
2019-04-30T12:12:48.821Z,57.88
2019-04-30T12:13:48.698Z,57.01
2019-04-30T12:15:41.407Z,56.51
2019-04-30T12:16:41.281Z,57.75
2019-04-30T12:18:33.949Z,58.14
2019-04-30T12:19:33.848Z,59.19
2019-04-30T12:21:26.551Z,59.29
2019-04-30T12:22:26.423Z,59.29
2019-04-30T12:24:19.148Z,58.14
2019-04-30T12:25:18.994Z,58.84
2019-04-30T12:27:11.690Z,55.83
2019-04-30T12:28:11.568Z,56.22
2019-04-30T12:30:04.247Z,57.11
2019-04-30T12:31:05.859Z,56.63
2019-04-30T12:32:56.839Z,54.04
2019-04-30T12:33:56.725Z,53.85
2019-04-30T12:35:51.370Z,55.29
2019-04-30T12:36:49.718Z,55.29
2019-04-30T12:38:42.018Z,55.00
2019-04-30T12:39:41.892Z,55.32
2019-04-30T12:41:34.598Z,55.69
2019-04-30T12:42:34.476Z,55.69
2019-04-30T12:44:27.154Z,55.32
2019-04-30T12:45:27.052Z,54.83
2019-04-30T12:47:21.916Z,54.74
2019-04-30T12:48:20.360Z,54.55
2019-04-30T12:50:12.313Z,54.55
2019-04-30T12:51:12.208Z,54.45
2019-04-30T12:53:04.909Z,55.29
2019-04-30T12:54:04.842Z,55.77
2019-04-30T12:56:00.224Z,55.99
2019-04-30T12:56:57.362Z,56.08
2019-04-30T12:58:50.064Z,55.89
2019-04-30T12:59:49.943Z,55.22
2019-04-30T13:01:42.644Z,54.45
2019-04-30T13:02:42.516Z,56.08
2019-04-30T13:04:35.218Z,53.01
2019-04-30T13:05:35.098Z,50.90
2019-04-30T13:07:30.393Z,54.74
2019-04-30T13:08:28.207Z,55.22
2019-04-30T13:10:20.901Z,55.12
2019-04-30T13:11:21.352Z,55.22
2019-04-30T13:13:13.432Z,55.41
2019-04-30T13:14:13.323Z,56.27
2019-04-30T13:16:05.536Z,56.49
2019-04-30T13:17:07.369Z,56.30
2019-04-30T13:18:59.352Z,55.82
2019-04-30T13:19:58.007Z,56.18
2019-04-30T13:21:50.682Z,54.86
2019-04-30T13:22:50.588Z,54.86
2019-04-30T13:24:43.308Z,53.97
2019-04-30T13:25:51.154Z,53.39
2019-04-30T13:27:35.848Z,54.45
2019-04-30T13:28:35.739Z,53.20
2019-04-30T13:30:29.940Z,53.87
2019-04-30T13:31:29.454Z,53.30
2019-04-30T13:33:21.014Z,55.89
2019-04-30T13:34:20.918Z,56.82
2019-04-30T13:36:13.616Z,57.78
2019-04-30T13:37:13.497Z,56.53
2019-04-30T13:39:06.189Z,56.53
2019-04-30T13:40:06.086Z,56.76
2019-04-30T13:41:59.222Z,55.69
2019-04-30T13:42:58.656Z,55.32
2019-04-30T13:44:51.330Z,55.22
2019-04-30T13:45:51.914Z,54.64
2019-04-30T13:47:44.139Z,53.97
2019-04-30T13:48:43.815Z,54.45
2019-04-30T13:50:36.485Z,53.49
2019-04-30T13:51:36.426Z,55.51
2019-04-30T13:53:29.075Z,55.05
2019-04-30T13:54:28.959Z,55.24
2019-04-30T13:56:21.635Z,56.56
2019-04-30T13:57:21.852Z,57.23
2019-04-30T13:59:14.293Z,56.56
2019-04-30T14:00:14.142Z,56.01
2019-04-30T14:02:08.643Z,55.22
2019-04-30T14:03:06.975Z,55.22
2019-04-30T14:04:59.597Z,56.27
2019-04-30T14:05:59.524Z,55.79
2019-04-30T14:07:52.252Z,53.78
2019-04-30T14:08:52.108Z,54.83
2019-04-30T14:10:44.798Z,54.74
2019-04-30T14:11:44.639Z,55.12
2019-04-30T14:13:37.325Z,54.64
2019-04-30T14:14:39.406Z,55.89
2019-04-30T14:16:29.995Z,55.79
2019-04-30T14:17:29.911Z,56.08
2019-04-30T14:19:22.735Z,57.30
2019-04-30T14:20:22.476Z,57.81
2019-04-30T14:22:15.194Z,57.62
2019-04-30T14:23:15.102Z,57.04
2019-04-30T14:25:07.788Z,57.33
2019-04-30T14:26:09.299Z,57.14
2019-04-30T14:28:00.384Z,56.85
2019-04-30T14:29:00.227Z,57.07
2019-04-30T14:30:53.112Z,56.98
2019-04-30T14:31:52.836Z,56.66
2019-04-30T14:33:45.549Z,57.23
2019-04-30T14:34:45.395Z,57.04
2019-04-30T14:36:39.219Z,57.81
2019-04-30T14:37:38.869Z,57.71
2019-04-30T14:39:31.067Z,57.81
2019-04-30T14:40:31.435Z,57.43
2019-04-30T14:42:24.390Z,57.81
2019-04-30T14:43:23.799Z,57.90
2019-04-30T14:45:16.504Z,57.33
2019-04-30T14:46:16.318Z,56.88
2019-04-30T14:48:09.385Z,57.33
2019-04-30T14:49:10.769Z,56.76
2019-04-30T14:51:01.206Z,57.62
2019-04-30T14:52:01.104Z,57.71
2019-04-30T14:53:54.256Z,58.39
2019-04-30T14:54:54.148Z,58.10
2019-04-30T14:56:46.865Z,58.29
2019-04-30T14:57:46.738Z,58.10
2019-04-30T14:59:39.413Z,58.58
2019-04-30T15:00:39.305Z,58.58
2019-04-30T15:02:32.009Z,59.54
2019-04-30T15:03:31.882Z,59.54
2019-04-30T15:05:24.565Z,59.73
2019-04-30T15:06:24.458Z,59.73
2019-04-30T15:08:19.312Z,60.02
2019-04-30T15:09:17.032Z,59.34
2019-04-30T15:11:09.713Z,59.22
2019-04-30T15:12:09.761Z,59.32
2019-04-30T15:14:02.301Z,58.77
2019-04-30T15:15:02.190Z,59.54
2019-04-30T15:16:54.862Z,59.92
2019-04-30T15:17:54.753Z,59.25
2019-04-30T15:19:49.336Z,58.58
2019-04-30T15:20:49.603Z,59.16
2019-04-30T15:22:40.022Z,58.67
2019-04-30T15:23:39.899Z,59.44
2019-04-30T15:25:34.023Z,58.48
2019-04-30T15:26:32.479Z,58.80
2019-04-30T15:28:32.432Z,59.57
2019-04-30T15:29:25.067Z,58.58
2019-04-30T15:31:18.480Z,58.58
2019-04-30T15:32:18.568Z,58.96
2019-04-30T15:34:11.102Z,59.64
2019-04-30T15:35:10.210Z,59.25
2019-04-30T15:37:02.915Z,58.48
2019-04-30T15:38:02.783Z,58.67
2019-04-30T15:39:55.477Z,60.08
2019-04-30T15:40:55.354Z,60.08
2019-04-30T15:42:48.048Z,59.89
2019-04-30T15:43:47.934Z,59.12
2019-04-30T15:45:40.633Z,58.36
2019-04-30T15:46:40.509Z,58.74
2019-04-30T15:48:33.221Z,58.64
2019-04-30T15:49:33.086Z,59.12
2019-04-30T15:51:25.796Z,59.12
2019-04-30T15:52:25.657Z,59.22
2019-04-30T15:54:19.030Z,58.36
2019-04-30T15:55:18.964Z,58.20
2019-04-30T15:57:10.918Z,57.52
2019-04-30T15:58:10.809Z,57.78
2019-04-30T16:00:03.506Z,57.78
2019-04-30T16:01:03.383Z,56.92
2019-04-30T16:02:57.475Z,57.68
2019-04-30T16:03:55.957Z,57.88
2019-04-30T16:05:48.671Z,56.63
2019-04-30T16:06:49.182Z,56.44
2019-04-30T16:08:41.277Z,56.44
2019-04-30T16:09:41.136Z,56.24
2019-04-30T16:11:33.813Z,56.53
2019-04-30T16:12:33.718Z,56.05
2019-04-30T16:14:26.395Z,55.19
2019-04-30T16:15:26.277Z,54.61
2019-04-30T16:17:20.675Z,55.38
2019-04-30T16:18:19.650Z,55.29
2019-04-30T16:20:11.555Z,55.19
2019-04-30T16:21:11.428Z,54.52
2019-04-30T16:23:04.116Z,55.19
2019-04-30T16:24:04.004Z,55.77
2019-04-30T16:25:56.703Z,55.10
2019-04-30T16:26:56.585Z,55.67
2019-04-30T16:28:49.616Z,55.86
2019-04-30T16:29:49.848Z,55.86
2019-04-30T16:31:41.856Z,56.05
2019-04-30T16:32:41.732Z,55.96
2019-04-30T16:34:34.449Z,55.96
2019-04-30T16:35:34.309Z,55.96
2019-04-30T16:37:28.682Z,56.15
2019-04-30T16:38:28.858Z,56.24
2019-04-30T16:40:19.571Z,56.34
2019-04-30T16:41:31.106Z,56.92
2019-04-30T16:43:12.162Z,57.11
2019-04-30T16:44:12.036Z,57.01
2019-04-30T16:46:04.771Z,57.78
2019-04-30T16:47:13.467Z,57.59
2019-04-30T16:48:58.747Z,58.26
2019-04-30T16:49:58.867Z,57.50
2019-04-30T16:51:50.082Z,58.52
2019-04-30T16:52:49.888Z,59.29
2019-04-30T16:54:42.453Z,58.64
2019-04-30T16:55:42.342Z,59.51
2019-04-30T16:57:35.035Z,58.74
2019-04-30T16:58:34.916Z,59.51
2019-04-30T17:00:28.829Z,59.67
2019-04-30T17:01:27.487Z,59.77
2019-04-30T17:03:20.166Z,59.48
2019-04-30T17:04:20.057Z,58.71
2019-04-30T17:06:12.765Z,59.58
2019-04-30T17:07:12.631Z,58.33
2019-04-30T17:09:05.313Z,57.75
2019-04-30T17:10:05.205Z,57.68
2019-04-30T17:11:59.469Z,57.75
2019-04-30T17:12:59.325Z,58.14
2019-04-30T17:14:50.472Z,58.14
2019-04-30T17:15:50.364Z,58.42
2019-04-30T17:17:43.058Z,58.42
2019-04-30T17:18:42.935Z,58.62
2019-04-30T17:20:35.616Z,58.52
2019-04-30T17:21:35.511Z,58.62
2019-04-30T17:23:29.324Z,59.19
2019-04-30T17:24:30.118Z,59.67
2019-04-30T17:26:20.788Z,59.48
2019-04-30T17:27:22.221Z,59.67
2019-04-30T17:29:13.373Z,60.05
2019-04-30T17:30:13.248Z,60.44
2019-04-30T17:32:05.950Z,60.72
2019-04-30T17:33:05.819Z,60.82
2019-04-30T17:34:59.163Z,60.82
2019-04-30T17:35:58.391Z,60.63
2019-04-30T17:37:51.088Z,61.02
2019-04-30T17:38:50.967Z,60.92
2019-04-30T17:40:43.642Z,61.69
2019-04-30T17:41:43.534Z,61.59
2019-04-30T17:43:36.230Z,61.94
2019-04-30T17:44:36.111Z,62.07
2019-04-30T17:46:28.781Z,62.71
2019-04-30T17:47:28.866Z,62.33
2019-04-30T17:49:21.378Z,62.04
2019-04-30T17:50:22.378Z,62.33
2019-04-30T17:52:13.956Z,62.42
2019-04-30T17:53:13.835Z,63.00
2019-04-30T17:55:06.502Z,63.00
2019-04-30T17:56:06.400Z,62.81
2019-04-30T17:57:59.105Z,63.48
2019-04-30T17:58:58.990Z,63.38
2019-04-30T18:00:51.665Z,63.86
2019-04-30T18:01:51.566Z,63.45
2019-04-30T18:03:44.380Z,63.73
2019-04-30T18:04:44.219Z,63.92
2019-04-30T18:06:36.912Z,64.31
2019-04-30T18:07:36.800Z,64.22
2019-04-30T18:09:29.790Z,64.89
2019-04-30T18:10:29.414Z,65.08
2019-04-30T18:12:22.469Z,65.17
2019-04-30T18:13:22.094Z,65.46
2019-04-30T18:15:14.719Z,66.13
2019-04-30T18:16:14.551Z,66.29
2019-04-30T18:18:22.011Z,66.77
2019-04-30T18:19:21.149Z,67.05
2019-04-30T18:21:14.189Z,67.91
2019-04-30T18:22:14.102Z,67.63
2019-04-30T18:24:08.577Z,68.87
2019-04-30T18:25:06.377Z,69.45
2019-04-30T18:26:59.053Z,69.74
2019-04-30T18:27:59.490Z,69.17
2019-04-30T18:29:51.657Z,70.03
2019-04-30T18:30:51.539Z,70.41
2019-04-30T18:32:44.200Z,70.79
2019-04-30T18:33:44.090Z,71.04
2019-04-30T18:35:38.664Z,71.81
2019-04-30T18:36:36.665Z,71.14
2019-04-30T18:38:31.133Z,71.91
2019-04-30T18:39:29.231Z,72.19
2019-04-30T18:41:21.922Z,72.67
2019-04-30T18:42:21.813Z,72.96
2019-04-30T18:44:14.512Z,73.54
2019-04-30T18:45:14.380Z,74.40
2019-04-30T18:47:08.929Z,74.20
2019-04-30T18:48:06.945Z,74.26
2019-04-30T18:49:59.650Z,74.84
2019-04-30T18:50:59.528Z,75.02
2019-04-30T18:52:52.195Z,75.41
2019-04-30T18:53:52.096Z,75.79
2019-04-30T18:55:44.783Z,76.37
2019-04-30T18:56:44.659Z,76.37
2019-04-30T18:58:42.119Z,76.56
2019-04-30T18:59:37.216Z,76.75
2019-04-30T19:01:29.912Z,76.56
2019-04-30T19:02:29.797Z,76.75
2019-04-30T19:04:22.468Z,77.23
2019-04-30T19:05:22.364Z,77.51
2019-04-30T19:07:15.040Z,77.76
2019-04-30T19:08:14.922Z,78.24
2019-04-30T19:10:07.622Z,78.05
2019-04-30T19:11:08.993Z,78.34
2019-04-30T19:13:00.160Z,77.95
2019-04-30T19:14:00.057Z,78.05
2019-04-30T19:16:17.640Z,78.53
2019-04-30T19:16:52.620Z,78.91
2019-04-30T19:18:45.295Z,78.63
2019-04-30T19:19:45.191Z,78.81
2019-04-30T19:21:40.185Z,78.91
2019-04-30T19:22:39.611Z,78.81
2019-04-30T19:24:30.426Z,79.10
2019-04-30T19:25:30.319Z,79.10
2019-04-30T19:27:23.023Z,79.68
2019-04-30T19:28:23.632Z,79.49
2019-04-30T19:30:15.563Z,80.02
2019-04-30T19:31:15.449Z,79.77
2019-04-30T19:33:08.688Z,80.59
2019-04-30T19:34:09.763Z,80.02
2019-04-30T19:36:00.680Z,80.11
2019-04-30T19:37:00.581Z,80.30
2019-04-30T19:38:53.260Z,80.59
2019-04-30T19:39:53.141Z,80.50
2019-04-30T19:41:45.822Z,80.50
2019-04-30T19:42:48.328Z,80.30
2019-04-30T19:44:39.460Z,81.36
2019-04-30T19:45:38.275Z,81.26
2019-04-30T19:47:30.988Z,81.65
2019-04-30T19:48:30.842Z,81.07
2019-04-30T19:50:23.539Z,81.74
2019-04-30T19:51:23.408Z,81.84
2019-04-30T19:53:16.103Z,81.60
2019-04-30T19:54:15.976Z,81.55
2019-04-30T19:56:08.646Z,81.99
2019-04-30T19:57:10.279Z,81.99
2019-04-30T19:59:05.192Z,82.18
2019-04-30T20:00:01.101Z,82.56
2019-04-30T20:01:53.776Z,82.56
2019-04-30T20:02:53.665Z,83.04
2019-04-30T20:04:46.362Z,83.13
2019-04-30T20:05:46.227Z,83.33
2019-04-30T20:07:40.577Z,83.13
2019-04-30T20:08:38.844Z,82.75
2019-04-30T20:10:32.012Z,83.23
2019-04-30T20:11:31.890Z,83.80
2019-04-30T20:13:36.189Z,83.42
2019-04-30T20:14:24.458Z,83.70
2019-04-30T20:16:17.146Z,84.09
2019-04-30T20:17:17.032Z,84.09
2019-04-30T20:19:09.688Z,83.80
2019-04-30T20:20:09.594Z,84.56
2019-04-30T20:22:02.293Z,84.56
2019-04-30T20:23:02.164Z,84.28
2019-04-30T20:24:54.839Z,84.38
2019-04-30T20:25:54.737Z,84.56
2019-04-30T20:27:49.481Z,84.66
2019-04-30T20:28:48.745Z,84.52
2019-04-30T20:30:40.016Z,85.05
2019-04-30T20:31:39.881Z,85.05
2019-04-30T20:33:32.568Z,84.95
2019-04-30T20:34:32.451Z,84.95
2019-04-30T20:36:25.123Z,85.24
2019-04-30T20:37:25.330Z,85.77
2019-04-30T20:39:17.768Z,85.71
2019-04-30T20:40:18.570Z,85.67
2019-04-30T20:42:10.315Z,85.58
2019-04-30T20:43:10.200Z,85.96
2019-04-30T20:45:03.909Z,86.05
2019-04-30T20:46:02.880Z,85.86
2019-04-30T20:47:55.549Z,86.15
2019-04-30T20:48:55.442Z,86.53
2019-04-30T20:50:48.623Z,86.43
2019-04-30T20:51:55.598Z,86.43
2019-04-30T20:53:41.198Z,86.91
2019-04-30T20:54:41.073Z,87.01
2019-04-30T20:56:33.730Z,87.01
2019-04-30T20:57:33.623Z,87.20
2019-04-30T20:59:26.330Z,88.06
2019-04-30T21:00:26.201Z,88.25
2019-04-30T21:02:20.506Z,88.54
2019-04-30T21:03:19.645Z,88.54
2019-04-30T21:05:11.445Z,88.68
2019-04-30T21:06:11.327Z,88.73
2019-04-30T21:08:04.006Z,88.25
2019-04-30T21:09:03.895Z,88.20
2019-04-30T21:10:56.579Z,89.11
2019-04-30T21:11:56.450Z,88.40
2019-04-30T21:13:49.239Z,88.97
2019-04-30T21:14:49.039Z,89.06
2019-04-30T21:16:41.725Z,89.45
2019-04-30T21:17:41.581Z,88.97
2019-04-30T21:19:34.257Z,89.64
2019-04-30T21:20:34.141Z,89.64
2019-04-30T21:22:29.468Z,90.02
2019-04-30T21:23:29.139Z,90.40
2019-04-30T21:25:19.861Z,90.69
2019-04-30T21:26:19.755Z,90.88
2019-04-30T21:28:12.444Z,91.26
2019-04-30T21:29:15.682Z,91.36
2019-04-30T21:31:04.995Z,91.12
2019-04-30T21:32:04.918Z,91.83
2019-04-30T21:33:58.742Z,91.60
2019-04-30T21:34:57.463Z,91.50
2019-04-30T21:36:50.135Z,91.78
2019-04-30T21:37:50.049Z,92.26
2019-04-30T21:39:42.697Z,92.07
2019-04-30T21:40:42.584Z,92.36
2019-04-30T21:42:35.285Z,92.83
2019-04-30T21:43:35.152Z,92.74
2019-04-30T21:45:29.224Z,92.83
2019-04-30T21:46:29.277Z,92.55
2019-04-30T21:48:20.402Z,93.51
2019-04-30T21:49:20.268Z,93.12
2019-04-30T21:51:12.968Z,93.12
2019-04-30T21:52:12.820Z,93.31
2019-04-30T21:54:05.519Z,93.31
2019-04-30T21:55:05.387Z,93.12
2019-04-30T21:56:58.054Z,93.12
2019-04-30T21:57:59.377Z,93.27
2019-04-30T21:59:50.626Z,93.51
